METAR Data
IDs: Format: Raw Decoded Include TAF

Data at: 1450 UTC 10 Aug 2022

KSAC 101353Z 15004KT 10SM CLR 16/13 A3002 RMK AO2 SLP165 T01560133
KSAC 101253Z AUTO 14003KT 10SM CLR 16/13 A3000 RMK AO2 SLP159 T01560133
KSAC 101153Z AUTO 16004KT 10SM CLR 16/13 A3000 RMK AO2 SLP157 T01560133 10183 20156 52005
KSAC 101053Z AUTO 00000KT 10SM CLR 16/13 A2999 RMK AO2 SLP155 T01610133
KSAC 100953Z AUTO 00000KT 10SM CLR 17/13 A2999 RMK AO2 SLP154 T01670133
KSAC 100853Z AUTO 19008KT 10SM CLR 17/13 A2998 RMK AO2 SLP152 T01720133 50002
KSAC 100753Z AUTO 18006KT 10SM CLR 17/13 A2998 RMK AO2 SLP153 T01720133 403170172
KSAC 100653Z AUTO 19006KT 10SM CLR 18/13 A2998 RMK AO2 SLP151 T01780128
KSAC 100553Z AUTO 20007KT 10SM CLR 18/13 A2997 RMK AO2 SLP150 T01830128 10300 20183 53020
KSAC 100453Z AUTO 20006KT 10SM CLR 20/13 A2996 RMK AO2 SLP144 T02000128
KSAC 100353Z 20008G17KT 10SM CLR 22/12 A2993 RMK AO2 SLP134 T02170117
KSAC 100253Z 20011G19KT 10SM CLR 24/11 A2992 RMK AO2 SLP130 T02390111 53009
KSAC 100153Z 19010G16KT 10SM CLR 26/11 A2990 RMK AO2 SLP125 T02610106
KSAC 100053Z 22013G19KT 10SM CLR 29/11 A2989 RMK AO2 SLP123 T02890111
KSAC 092353Z 22013G20KT 10SM CLR 30/11 A2989 RMK AO2 SLP120 T03000111 10317 20239 56010
KSAC 092253Z 22014G18KT 10SM CLR 31/11 A2989 RMK AO2 SLP122 T03060106
KSAC 092153Z 21011KT 10SM CLR 31/10 A2991 RMK AO2 SLP128 T03060100
KSAC 092053Z 21012G15KT 10SM CLR 30/11 A2992 RMK AO2 SLP130 T03000106 58009
KSAC 091953Z 19009KT 10SM CLR 28/12 A2993 RMK AO2 SLP135 T02830122
KSAC 091853Z 21008G15KT 10SM CLR 27/13 A2994 RMK AO2 SLP139 T02670128
KSAC 091753Z 19008KT 10SM CLR 24/13 A2995 RMK AO2 SLP140 T02390133 10239 20172 51002
KSAC 091653Z VRB05KT 10SM CLR 22/14 A2995 RMK AO2 SLP140 T02170139
KSAC 091553Z 19009KT 10SM CLR 19/13 A2995 RMK AO2 SLP141 T01940133
KSAC 091453Z 17005KT 10SM CLR 18/13 A2994 RMK AO2 SLP138 T01780133 53012
KSAC 091353Z VRB06KT 10SM CLR 17/13 A2993 RMK AO2 SLP134 T01720133
KSAC 091253Z 18005KT 10SM CLR 17/13 A2991 RMK AO2 SLP127 T01720133
KSAC 091153Z AUTO 18005KT 10SM CLR 18/13 A2990 RMK AO2 SLP126 T01780133 10200 20178 53003
KSAC 091053Z AUTO 16007KT 10SM CLR 18/14 A2990 RMK AO2 SLP124 T01830139
KSAC 090953Z AUTO 17005KT 10SM CLR 19/13 A2989 RMK AO2 SLP122 T01890133
KSAC 090853Z AUTO 18005KT 10SM CLR 18/13 A2990 RMK AO2 SLP123 T01830133 50000
KSAC 090753Z AUTO 18005KT 10SM CLR 18/13 A2990 RMK AO2 SLP125 T01830128 403280156
KSAC 090653Z AUTO 19007KT 10SM CLR 19/12 A2990 RMK AO2 SLP124 T01940122
KSAC 090553Z AUTO 18006KT 10SM CLR 20/13 A2990 RMK AO2 SLP123 T02000128 10322 20200 51009
KSAC 090453Z AUTO 20009KT 10SM CLR 21/12 A2989 RMK AO2 SLP122 T02110122
KSAC 090353Z 20008G16KT 10SM CLR 23/12 A2988 RMK AO2 SLP118 T02280117
KSAC 090253Z 21012G18KT 10SM CLR 26/11 A2987 RMK AO2 SLP114 T02560106 53000